PACV METAR and TAF weather

Enter ICAO airport designator
Station Type Date Time Source
PACV METAR 2019/02/16 02:53 UTC NOAA

PACV 160253Z 00000KT 10SM CLR M05/M12 A3001 RMK AO2 SLP164 T10501122 53026


Station Type Date Time Source
PACV Decoded METAR 2019/02/16 02:53 UTC NOAA

MERLE K. SMITH AIRPORT, AK, United States (PACV) 60-30N 145-29W 13M
Feb 15, 2019 - 09:53 PM EST / 2019.02.16 0253 UTC
Wind: Calm:0
Visibility: 10 mile(s):0
Sky conditions: clear
Temperature: 23.0 F (-5.0 C)
Dew Point: 10.0 F (-12.2 C)
Relative Humidity: 56%
Pressure (altimeter): 30.01 in. Hg (1016 hPa)
Pressure tendency: 0.08 inches (2.6 hPa) higher than three hours ago
ob: PACV 160253Z 00000KT 10SM CLR M05/M12 A3001 RMK AO2 SLP164 T10501122 53026
cycle: 3

Station Type Date Time Source
PACV TAF 2019/02/15 18:36 UTC NOAA

TAF PACV 151734Z 1518/1618 VRB04KT P6SM SCT200


Example: see airport list